Time,TemperatureF,DewpointF,PressureIn,WindDirection,WindDirectionDegrees,WindSpeedMPH,WindSpeedGustMPH,Humidity,HourlyPrecipIn,Conditions,Clouds,dailyrainin,SoftwareType,DateUTC
2013-07-21 00:01:00,81.0,-99.9,-100.00,West,259,5.0,12.0,-999,-99.99,,,-99.99,,2013-07-21 07:01:00,
2013-07-21 00:12:00,81.0,-99.9,-100.00,West,259,5.0,12.0,-999,-99.99,,,-99.99,,2013-07-21 07:12:00,
2013-07-21 01:02:00,79.0,-99.9,-100.00,WNW,291,9.0,18.0,-999,-99.99,,,-99.99,,2013-07-21 08:02:00,
2013-07-21 01:11:00,79.0,-99.9,-100.00,WNW,291,9.0,18.0,-999,-99.99,,,-99.99,,2013-07-21 08:11:00,
2013-07-21 02:02:00,80.0,-99.9,-100.00,WNW,290,9.0,14.0,-999,-99.99,,,-99.99,,2013-07-21 09:02:00,
2013-07-21 02:12:00,80.0,-99.9,-100.00,WNW,290,9.0,14.0,-999,-99.99,,,-99.99,,2013-07-21 09:12:00,
2013-07-21 03:02:00,75.0,-99.9,-100.00,NW,309,5.0,7.0,-999,-99.99,,,-99.99,,2013-07-21 10:02:00,
2013-07-21 03:12:00,75.0,-99.9,-100.00,NW,309,5.0,7.0,-999,-99.99,,,-99.99,,2013-07-21 10:12:00,
2013-07-21 04:02:00,71.0,-99.9,-100.00,East,84,1.0,3.0,-999,-99.99,,,-99.99,,2013-07-21 11:02:00,
2013-07-21 04:12:00,71.0,-99.9,-100.00,East,84,1.0,3.0,-999,-99.99,,,-99.99,,2013-07-21 11:12:00,
2013-07-21 05:01:00,69.0,-99.9,-100.00,WNW,295,1.0,1.0,-999,-99.99,,,-99.99,,2013-07-21 12:01:00,
2013-07-21 05:11:00,69.0,-99.9,-100.00,WNW,295,1.0,1.0,-999,-99.99,,,-99.99,,2013-07-21 12:11:00,
2013-07-21 06:02:00,62.0,-99.9,-100.00,ENE,66,1.0,2.0,-999,-99.99,,,-99.99,,2013-07-21 13:02:00,
2013-07-21 06:12:00,62.0,-99.9,-100.00,ENE,66,1.0,2.0,-999,-99.99,,,-99.99,,2013-07-21 13:12:00,
2013-07-21 07:02:00,63.0,-99.9,-100.00,NW,304,3.0,5.0,-999,-99.99,,,-99.99,,2013-07-21 14:02:00,
2013-07-21 07:12:00,63.0,-99.9,-100.00,NW,304,3.0,5.0,-999,-99.99,,,-99.99,,2013-07-21 14:12:00,
2013-07-21 08:02:00,74.0,-99.9,-100.00,NNE,17,1.0,2.0,-999,-99.99,,,-99.99,,2013-07-21 15:02:00,
2013-07-21 08:12:00,74.0,-99.9,-100.00,NNE,17,1.0,2.0,-999,-99.99,,,-99.99,,2013-07-21 15:12:00,
2013-07-21 09:02:00,77.0,-99.9,-100.00,South,169,3.0,7.0,-999,-99.99,,,-99.99,,2013-07-21 16:02:00,
2013-07-21 09:12:00,77.0,-99.9,-100.00,South,169,3.0,7.0,-999,-99.99,,,-99.99,,2013-07-21 16:12:00,
2013-07-21 10:02:00,82.0,-99.9,-100.00,East,84,2.0,5.0,-999,-99.99,,,-99.99,,2013-07-21 17:02:00,
2013-07-21 10:11:00,82.0,-99.9,-100.00,East,84,2.0,5.0,-999,-99.99,,,-99.99,,2013-07-21 17:11:00,
2013-07-21 11:01:00,85.0,-99.9,-100.00,SE,140,2.0,5.0,-999,-99.99,,,-99.99,,2013-07-21 18:01:00,
2013-07-21 11:11:00,85.0,-99.9,-100.00,SE,140,2.0,5.0,-999,-99.99,,,-99.99,,2013-07-21 18:11:00,
2013-07-21 12:02:00,90.0,-99.9,-100.00,SW,220,2.0,7.0,-999,-99.99,,,-99.99,,2013-07-21 19:02:00,
2013-07-21 12:11:00,90.0,-99.9,-100.00,SW,220,2.0,7.0,-999,-99.99,,,-99.99,,2013-07-21 19:11:00,
2013-07-21 13:02:00,92.0,-99.9,-100.00,ESE,112,2.0,9.0,-999,-99.99,,,-99.99,,2013-07-21 20:02:00,
2013-07-21 13:12:00,92.0,-99.9,-100.00,ESE,112,2.0,9.0,-999,-99.99,,,-99.99,,2013-07-21 20:12:00,
2013-07-21 14:02:00,94.0,-99.9,-100.00,ESE,121,3.0,12.0,-999,-99.99,,,-99.99,,2013-07-21 21:02:00,
2013-07-21 14:11:00,94.0,-99.9,-100.00,ESE,121,3.0,12.0,-999,-99.99,,,-99.99,,2013-07-21 21:11:00,
2013-07-21 15:01:00,97.0,-99.9,-100.00,ESE,106,3.0,8.0,-999,-99.99,,,-99.99,,2013-07-21 22:01:00,
2013-07-21 15:11:00,97.0,-99.9,-100.00,ESE,106,3.0,8.0,-999,-99.99,,,-99.99,,2013-07-21 22:11:00,
2013-07-21 16:02:00,98.0,-99.9,-100.00,East,80,3.0,8.0,-999,-99.99,,,-99.99,,2013-07-21 23:02:00,
2013-07-21 16:11:00,98.0,-99.9,-100.00,East,80,3.0,8.0,-999,-99.99,,,-99.99,,2013-07-21 23:11:00,
2013-07-21 17:01:00,100.0,-99.9,-100.00,WNW,285,2.0,6.0,-999,-99.99,,,-99.99,,2013-07-22 00:01:00,
2013-07-21 17:11:00,100.0,-99.9,-100.00,WNW,285,2.0,6.0,-999,-99.99,,,-99.99,,2013-07-22 00:11:00,
2013-07-21 18:02:00,101.0,-99.9,-100.00,SSE,154,3.0,10.0,-999,-99.99,,,-99.99,,2013-07-22 01:02:00,
2013-07-21 18:12:00,101.0,-99.9,-100.00,SSE,154,3.0,10.0,-999,-99.99,,,-99.99,,2013-07-22 01:12:00,
2013-07-21 19:02:00,101.0,-99.9,-100.00,South,187,3.0,9.0,-999,-99.99,,,-99.99,,2013-07-22 02:02:00,
2013-07-21 19:11:00,101.0,-99.9,-100.00,South,187,3.0,9.0,-999,-99.99,,,-99.99,,2013-07-22 02:11:00,
2013-07-21 20:01:00,100.0,-99.9,-100.00,WSW,250,7.0,25.0,-999,-99.99,,,-99.99,,2013-07-22 03:01:00,
2013-07-21 20:12:00,100.0,-99.9,-100.00,WSW,250,7.0,25.0,-999,-99.99,,,-99.99,,2013-07-22 03:12:00,
2013-07-21 21:01:00,92.0,-99.9,-100.00,NW,321,12.0,23.0,-999,-99.99,,,-99.99,,2013-07-22 04:01:00,
2013-07-21 21:12:00,92.0,-99.9,-100.00,NW,321,12.0,23.0,-999,-99.99,,,-99.99,,2013-07-22 04:12:00,
2013-07-21 22:02:00,88.0,-99.9,-100.00,NW,309,12.0,20.0,-999,-99.99,,,-99.99,,2013-07-22 05:02:00,
2013-07-21 22:12:00,88.0,-99.9,-100.00,NW,309,12.0,20.0,-999,-99.99,,,-99.99,,2013-07-22 05:12:00,
2013-07-21 23:01:00,85.0,-99.9,-100.00,WNW,294,10.0,18.0,-999,-99.99,,,-99.99,,2013-07-22 06:01:00,
2013-07-21 23:11:00,85.0,-99.9,-100.00,WNW,294,10.0,18.0,-999,-99.99,,,-99.99,,2013-07-22 06:11:00,